Time;durP1;ratioP1;P1;durP2;ratioP2;P2;SDS_P1;SDS_P2;PMS_P1;PMS_P2;Temp;Humidity;BMP_temperature;BMP_pressure;BME280_temperature;BME280_humidity;BME280_pressure;Samples;Min_cycle;Max_cycle;Signal;HPM_P1;HPM_P2
2021/10/07 00:00:32;;;;;;;3.75;1.13;;;;;;;9.71;100.00;99760.81;5063698;28;20061;-81
2021/10/07 00:02:59;;;;;;;6.65;1.20;;;;;;;9.81;100.00;99774.28;5059341;28;20127;-82
2021/10/07 00:05:28;;;;;;;4.88;1.00;;;;;;;9.80;100.00;99783.44;5053453;28;20052;-82
2021/10/07 00:07:55;;;;;;;3.08;1.15;;;;;;;9.74;100.00;99774.09;5055364;28;20067;-82
2021/10/07 00:10:22;;;;;;;4.55;1.40;;;;;;;9.78;100.00;99780.03;5066710;28;20052;-82
2021/10/07 00:12:49;;;;;;;1.80;1.17;;;;;;;9.70;100.00;99764.56;5057275;28;20135;-81
2021/10/07 00:15:16;;;;;;;2.95;1.40;;;;;;;9.79;100.00;99773.59;5053024;28;20067;-81
2021/10/07 00:17:43;;;;;;;4.05;1.30;;;;;;;9.80;100.00;99780.72;5052894;28;20051;-82
2021/10/07 00:20:12;;;;;;;4.47;1.30;;;;;;;9.81;100.00;99774.28;5053012;28;20063;-82
2021/10/07 00:22:41;;;;;;;3.85;1.10;;;;;;;9.88;100.00;99778.03;5053134;28;20049;-82
2021/10/07 00:25:10;;;;;;;3.97;1.00;;;;;;;9.83;100.00;99761.38;5052827;28;20519;-82
2021/10/07 00:27:37;;;;;;;3.83;1.10;;;;;;;9.86;100.00;99775.47;5053549;28;20045;-81
2021/10/07 00:30:09;;;;;;;5.30;1.27;;;;;;;9.87;100.00;99776.31;5052816;28;20064;-81
2021/10/07 00:32:39;;;;;;;3.97;1.17;;;;;;;9.89;100.00;99774.28;5052861;28;20850;-81
2021/10/07 00:40:36;;;;;;;2.17;1.95;;;;;;;9.83;100.00;99770.38;5052003;28;20455;-81
2021/10/07 00:43:03;;;;;;;2.50;1.00;;;;;;;9.91;100.00;99783.13;5051639;28;20527;-81
2021/10/07 00:45:30;;;;;;;3.00;1.30;;;;;;;9.85;100.00;99781.09;5051531;28;20052;-81
2021/10/07 00:47:57;;;;;;;1.25;1.02;;;;;;;9.85;100.00;99791.94;5051713;28;20041;-81
2021/10/07 00:50:23;;;;;;;5.45;1.27;;;;;;;9.77;100.00;99776.47;5052383;28;20076;-81
2021/10/07 00:52:52;;;;;;;3.70;1.02;;;;;;;9.73;100.00;99767.78;5052517;28;20056;-81
2021/10/07 00:55:19;;;;;;;3.60;1.20;;;;;;;9.76;100.00;99782.06;5052714;28;20044;-81
2021/10/07 00:57:47;;;;;;;3.20;1.08;;;;;;;9.67;100.00;99762.19;5052803;28;20128;-81
2021/10/07 01:00:14;;;;;;;3.00;1.27;;;;;;;9.84;100.00;99790.25;5053231;28;20048;-81
2021/10/07 01:02:42;;;;;;;3.58;1.20;;;;;;;9.83;100.00;99772.22;5053046;28;20111;-81
2021/10/07 01:05:09;;;;;;;4.00;1.50;;;;;;;9.79;100.00;99782.59;5052304;28;20048;-81
2021/10/07 01:07:36;;;;;;;4.88;1.17;;;;;;;9.79;100.00;99776.31;5054025;28;20049;-81
2021/10/07 01:10:05;;;;;;;3.92;1.42;;;;;;;9.75;100.00;99770.34;5056669;28;20049;-81
2021/10/07 01:12:32;;;;;;;4.32;1.40;;;;;;;9.78;100.00;99770.00;5056489;28;20132;-81
2021/10/07 01:14:58;;;;;;;4.15;1.10;;;;;;;9.85;100.00;99783.81;5056289;28;20477;-81
2021/10/07 01:17:27;;;;;;;2.20;1.00;;;;;;;9.79;100.00;99785.31;5056584;28;20045;-81
2021/10/07 01:19:57;;;;;;;2.08;1.08;;;;;;;9.71;100.00;99777.09;5055870;28;20055;-81
2021/10/07 01:22:25;;;;;;;4.28;1.35;;;;;;;9.68;100.00;99777.44;5056878;28;20136;-81
2021/10/07 01:24:53;;;;;;;2.50;1.08;;;;;;;9.75;100.00;99773.06;5056332;28;20565;-81
2021/10/07 01:27:25;;;;;;;2.92;1.17;;;;;;;9.72;100.00;99771.50;5056223;28;20041;-81
2021/10/07 01:29:53;;;;;;;2.33;1.30;;;;;;;9.76;100.00;99772.06;5055843;28;20040;-80
2021/10/07 01:32:22;;;;;;;1.75;1.27;;;;;;;9.82;100.00;99784.13;5056117;28;20041;-81
2021/10/07 01:34:49;;;;;;;3.47;1.30;;;;;;;9.79;100.00;99776.31;5055874;28;20128;-81
2021/10/07 01:37:18;;;;;;;4.65;1.27;;;;;;;9.89;100.00;99785.16;5055684;28;20123;-81
2021/10/07 01:39:45;;;;;;;2.63;1.50;;;;;;;9.90;100.00;99784.13;5055580;28;20072;-81
2021/10/07 01:42:12;;;;;;;3.10;1.38;;;;;;;9.86;100.00;99780.91;5055998;28;20048;-81
2021/10/07 01:44:39;;;;;;;3.70;1.63;;;;;;;9.87;100.00;99777.16;5055852;28;20053;-81
2021/10/07 01:47:06;;;;;;;7.90;2.15;;;;;;;9.94;100.00;99793.66;5056318;28;20059;-81
2021/10/07 01:49:33;;;;;;;5.15;1.30;;;;;;;9.84;100.00;99773.94;5055773;28;20057;-81
2021/10/07 01:52:00;;;;;;;3.47;1.33;;;;;;;9.81;100.00;99775.13;5056327;28;20052;-81
2021/10/07 01:54:29;;;;;;;6.22;2.60;;;;;;;9.80;100.00;99776.16;5055597;28;20496;-81
2021/10/07 01:56:56;;;;;;;2.58;1.08;;;;;;;9.88;100.00;99787.03;5056228;28;20049;-81
2021/10/07 01:59:23;;;;;;;2.60;1.50;;;;;;;9.86;100.00;99791.78;5057927;28;20556;-81
2021/10/07 02:01:50;;;;;;;7.55;1.80;;;;;;;9.87;100.00;99777.16;5065007;28;20051;-82
2021/10/07 02:04:17;;;;;;;3.80;1.40;;;;;;;9.80;100.00;99781.59;5071590;28;20048;-81
2021/10/07 02:06:43;;;;;;;3.35;1.27;;;;;;;9.80;100.00;99784.28;5075940;28;20048;-81
2021/10/07 02:09:10;;;;;;;5.38;1.45;;;;;;;9.80;100.00;99776.16;5068100;28;20415;-81
2021/10/07 02:11:39;;;;;;;3.25;1.67;;;;;;;9.92;100.00;99790.25;5055247;28;20041;-81
2021/10/07 02:14:06;;;;;;;2.03;1.13;;;;;;;9.82;100.00;99776.81;5058210;28;20076;-81
2021/10/07 02:16:34;;;;;;;2.58;1.40;;;;;;;9.82;100.00;99776.81;5055531;28;20064;-81
2021/10/07 02:19:00;;;;;;;1.73;1.08;;;;;;;9.92;100.00;99798.41;5057774;28;21176;-81
2021/10/07 02:21:27;;;;;;;3.65;1.50;;;;;;;9.81;100.00;99771.56;5075386;28;20053;-81
2021/10/07 02:23:54;;;;;;;4.82;1.55;;;;;;;9.91;100.00;99791.28;5069253;28;20072;-81
2021/10/07 02:26:22;;;;;;;5.82;1.20;;;;;;;9.91;100.00;99792.13;5075183;28;20048;-81
2021/10/07 02:28:50;;;;;;;3.55;1.83;;;;;;;9.83;100.00;99783.09;5075053;28;20048;-81
2021/10/07 02:31:17;;;;;;;2.28;1.30;;;;;;;9.99;100.00;99790.44;5054766;28;20052;-81
2021/10/07 02:33:44;;;;;;;1.70;1.33;;;;;;;9.93;100.00;99781.09;5055530;28;20056;-81
2021/10/07 02:36:12;;;;;;;4.05;1.50;;;;;;;9.96;100.00;99779.91;5054256;28;20080;-81
2021/10/07 02:38:39;;;;;;;2.92;1.50;;;;;;;9.93;100.00;99797.38;5055523;28;20049;-81
2021/10/07 02:41:06;;;;;;;1.50;1.23;;;;;;;9.89;100.00;99796.88;5054349;28;20072;-81
2021/10/07 02:43:33;;;;;;;2.13;1.30;;;;;;;9.87;100.00;99790.75;5054923;28;20409;-81
2021/10/07 02:46:01;;;;;;;4.53;1.40;;;;;;;9.92;100.00;99795.69;5054129;28;20420;-81
2021/10/07 02:48:28;;;;;;;2.25;1.05;;;;;;;9.90;100.00;99792.28;5054582;28;20060;-81
2021/10/07 02:50:55;;;;;;;3.35;1.30;;;;;;;9.99;100.00;99812.19;5054628;28;20114;-81
2021/10/07 02:53:23;;;;;;;5.35;1.40;;;;;;;9.90;100.00;99806.72;5054727;28;20136;-81
2021/10/07 02:55:51;;;;;;;3.83;1.38;;;;;;;9.84;100.00;99796.50;5054370;28;20120;-81
2021/10/07 02:58:18;;;;;;;1.30;1.20;;;;;;;9.88;100.00;99794.34;5054792;28;20049;-81
2021/10/07 03:00:45;;;;;;;1.98;1.40;;;;;;;9.95;100.00;99810.81;5054353;28;20053;-81
2021/10/07 03:03:13;;;;;;;2.15;1.70;;;;;;;9.89;100.00;99806.88;5054653;28;20076;-81
2021/10/07 03:05:40;;;;;;;2.75;1.17;;;;;;;9.82;100.00;99795.00;5053924;28;20489;-81
2021/10/07 03:08:07;;;;;;;2.33;1.10;;;;;;;9.90;100.00;99817.56;5054484;28;20049;-81
2021/10/07 03:10:34;;;;;;;4.10;1.65;;;;;;;9.94;100.00;99812.69;5054142;28;20057;-81
2021/10/07 03:13:01;;;;;;;1.25;1.13;;;;;;;9.82;100.00;99803.97;5054270;28;20392;-81
2021/10/07 03:15:27;;;;;;;4.40;1.42;;;;;;;9.86;100.00;99815.34;5053962;28;20049;-81
2021/10/07 03:17:54;;;;;;;2.67;1.50;;;;;;;9.84;100.00;99811.97;5054239;28;20041;-81
2021/10/07 03:20:23;;;;;;;4.28;1.40;;;;;;;9.77;100.00;99811.78;5054154;28;20084;-81
2021/10/07 03:22:50;;;;;;;4.20;1.17;;;;;;;9.87;100.00;99814.34;5054552;28;20051;-81
2021/10/07 03:25:17;;;;;;;3.38;1.20;;;;;;;9.95;100.00;99836.13;5053933;28;20048;-81
2021/10/07 03:27:44;;;;;;;6.03;1.10;;;;;;;9.90;100.00;99828.44;5054191;28;20053;-81
2021/10/07 03:30:11;;;;;;;2.08;1.30;;;;;;;9.93;100.00;99829.97;5052734;28;20056;-79
2021/10/07 03:32:38;;;;;;;3.67;1.40;;;;;;;9.83;100.00;99816.56;5053977;28;20495;-81
2021/10/07 03:35:06;;;;;;;3.63;1.27;;;;;;;9.83;100.00;99813.84;5053323;28;20047;-82
2021/10/07 03:37:37;;;;;;;3.40;1.40;;;;;;;9.94;100.00;99820.00;5053265;28;20045;-82
2021/10/07 03:40:05;;;;;;;3.25;1.13;;;;;;;9.87;100.00;99815.19;5053824;28;20053;-82
2021/10/07 03:42:35;;;;;;;5.68;1.20;;;;;;;10.01;100.00;99826.44;5053801;28;20045;-81
2021/10/07 03:45:03;;;;;;;1.65;1.30;;;;;;;10.05;100.00;99835.97;5053560;28;20045;-82
2021/10/07 03:47:30;;;;;;;2.65;1.27;;;;;;;9.81;100.00;99832.13;5053783;28;20048;-82
2021/10/07 03:49:57;;;;;;;1.73;1.17;;;;;;;9.84;100.00;99829.09;5053503;28;20051;-82
2021/10/07 03:52:25;;;;;;;1.45;1.10;;;;;;;9.95;100.00;99836.13;5053527;28;20504;-83
2021/10/07 03:54:54;;;;;;;2.40;1.33;;;;;;;9.82;100.00;99830.28;5053510;28;20381;-82
2021/10/07 03:57:23;;;;;;;2.53;1.50;;;;;;;9.71;100.00;99834.13;5070723;28;20488;-82
2021/10/07 03:59:50;;;;;;;2.78;1.00;;;;;;;9.68;100.00;99824.47;5053278;28;20055;-82
2021/10/07 04:02:17;;;;;;;2.17;1.38;;;;;;;9.65;100.00;99829.34;5072099;28;20480;-82
2021/10/07 04:04:44;;;;;;;4.78;1.42;;;;;;;9.75;100.00;99846.38;5060766;28;20055;-82
2021/10/07 04:07:11;;;;;;;2.47;1.30;;;;;;;9.79;100.00;99842.31;5055943;28;20049;-82
2021/10/07 04:09:39;;;;;;;1.83;1.13;;;;;;;9.79;100.00;99841.50;5054130;28;20429;-85
2021/10/07 04:12:08;;;;;;;1.60;1.23;;;;;;;9.78;100.00;99851.47;5057577;28;20408;-82
2021/10/07 04:14:35;;;;;;;3.17;1.17;;;;;;;9.73;100.00;99838.38;5053241;28;20049;-81
2021/10/07 04:17:02;;;;;;;2.25;1.52;;;;;;;9.87;100.00;99850.50;5053022;28;20049;-82
2021/10/07 04:19:29;;;;;;;1.48;1.13;;;;;;;9.81;100.00;99844.88;5053802;28;20052;-82
2021/10/07 04:21:56;;;;;;;2.70;1.60;;;;;;;9.69;100.00;99836.16;5052564;28;20041;-82
2021/10/07 04:24:23;;;;;;;5.60;1.67;;;;;;;9.74;100.00;99860.97;5053227;28;20052;-82
2021/10/07 04:26:50;;;;;;;1.98;1.23;;;;;;;9.65;100.00;99845.66;5052729;28;20044;-82
2021/10/07 04:29:18;;;;;;;2.30;1.38;;;;;;;9.64;100.00;99833.09;5052859;28;20045;-82
2021/10/07 04:31:45;;;;;;;2.72;1.17;;;;;;;9.68;100.00;99864.31;5052815;28;20049;-82
2021/10/07 04:34:12;;;;;;;1.65;1.10;;;;;;;9.53;100.00;99840.50;5053065;28;20508;-82
2021/10/07 04:36:41;;;;;;;5.75;1.52;;;;;;;9.71;100.00;99869.44;5052181;28;20131;-82
2021/10/07 04:39:09;;;;;;;4.50;2.38;;;;;;;9.64;100.00;99876.53;5053527;28;20135;-82
2021/10/07 04:41:36;;;;;;;4.82;1.92;;;;;;;9.43;100.00;99849.78;5053957;28;20048;-82
2021/10/07 04:44:03;;;;;;;7.35;1.90;;;;;;;9.45;100.00;99851.31;5057101;28;20053;-82
2021/10/07 04:46:31;;;;;;;1.45;1.10;;;;;;;9.53;100.00;99866.81;5056673;28;20049;-82
2021/10/07 04:48:58;;;;;;;5.68;1.60;;;;;;;9.64;100.00;99874.66;5056957;28;20053;-81
2021/10/07 04:51:25;;;;;;;2.25;1.42;;;;;;;9.52;100.00;99879.50;5056929;28;20053;-82
2021/10/07 04:53:52;;;;;;;2.60;1.70;;;;;;;9.30;100.00;99869.19;5056260;28;20072;-82
2021/10/07 04:56:19;;;;;;;3.20;1.45;;;;;;;9.39;100.00;99879.09;5056573;28;20045;-82
2021/10/07 04:58:46;;;;;;;6.05;1.70;;;;;;;9.35;100.00;99870.44;5057136;28;20052;-82
2021/10/07 05:01:16;;;;;;;3.20;1.73;;;;;;;9.26;100.00;99881.38;5056210;28;20057;-82
2021/10/07 05:03:44;;;;;;;;;;;;;;;9.30;100.00;99897.16;5057456;28;20132;-83
2021/10/07 05:06:11;;;;;;;3.58;1.73;;;;;;;9.20;100.00;99880.16;5056234;28;19928;-82
2021/10/07 05:08:38;;;;;;;5.10;1.70;;;;;;;9.26;100.00;99894.94;5056981;28;20049;-82
2021/10/07 05:11:05;;;;;;;6.10;1.88;;;;;;;9.26;100.00;99889.50;5056191;28;20056;-82
2021/10/07 05:13:32;;;;;;;1.90;1.58;;;;;;;9.35;100.00;99908.41;5056617;28;20052;-82
2021/10/07 05:15:59;;;;;;;2.90;1.75;;;;;;;9.38;100.00;99893.69;5056395;28;20052;-82
2021/10/07 05:18:26;;;;;;;4.20;1.80;;;;;;;9.46;100.00;99901.88;5070048;28;20407;-82
2021/10/07 05:20:54;;;;;;;6.40;1.88;;;;;;;9.34;100.00;99886.88;5073911;28;20044;-82
2021/10/07 05:23:21;;;;;;;2.05;1.38;;;;;;;9.42;100.00;99892.34;5075886;28;20048;-82
2021/10/07 05:25:48;;;;;;;5.00;1.85;;;;;;;9.53;100.00;99911.09;5076365;28;20048;-82
2021/10/07 05:28:15;;;;;;;4.57;1.50;;;;;;;9.43;100.00;99913.03;5075054;28;20185;-82
2021/10/07 05:30:42;;;;;;;2.30;1.45;;;;;;;9.44;100.00;99911.19;5075049;28;20041;-82
2021/10/07 05:33:09;;;;;;;2.63;1.73;;;;;;;9.38;100.00;99910.81;5075726;28;20059;-82
2021/10/07 05:35:36;;;;;;;5.07;1.90;;;;;;;9.45;100.00;99935.44;5068483;28;20041;-82
2021/10/07 05:38:04;;;;;;;4.85;1.80;;;;;;;9.41;100.00;99914.22;5075768;28;20081;-82
2021/10/07 05:40:31;;;;;;;7.70;1.92;;;;;;;9.33;100.00;99915.88;5062380;28;20128;-82
2021/10/07 05:42:58;;;;;;;3.50;1.75;;;;;;;9.44;100.00;99917.47;5056160;28;20045;-82
2021/10/07 05:45:25;;;;;;;3.30;1.90;;;;;;;9.38;100.00;99909.97;5059360;28;20132;-82
2021/10/07 05:47:52;;;;;;;2.65;1.40;;;;;;;9.63;100.00;99931.84;5056119;28;20041;-82
2021/10/07 05:50:19;;;;;;;4.32;2.22;;;;;;;9.57;100.00;99939.63;5059623;28;20041;-82
2021/10/07 05:52:45;;;;;;;2.83;1.55;;;;;;;9.60;100.00;99929.44;5055495;28;20049;-82
2021/10/07 05:55:14;;;;;;;5.85;1.65;;;;;;;9.64;100.00;99928.13;5063750;28;20051;-82
2021/10/07 05:57:41;;;;;;;9.85;1.83;;;;;;;9.49;100.00;99933.28;5076160;28;20041;-82
2021/10/07 06:00:09;;;;;;;5.68;1.80;;;;;;;9.53;100.00;99940.09;5071542;28;20041;-82
2021/10/07 06:02:36;;;;;;;4.22;2.00;;;;;;;9.55;100.00;99938.06;5066859;28;20076;-82
2021/10/07 06:05:03;;;;;;;2.15;1.65;;;;;;;9.48;100.00;99932.41;5069191;28;20036;-82
2021/10/07 06:07:30;;;;;;;3.72;2.10;;;;;;;9.57;100.00;99944.19;5055640;28;20503;-82
2021/10/07 06:09:57;;;;;;;5.85;1.92;;;;;;;9.56;100.00;99928.94;5059883;28;20056;-82
2021/10/07 06:12:26;;;;;;;3.80;1.92;;;;;;;9.68;100.00;99956.63;5075383;28;20052;-82
2021/10/07 06:14:53;;;;;;;3.33;2.13;;;;;;;9.64;100.00;99930.84;5055224;28;20043;-82
2021/10/07 06:17:20;;;;;;;2.67;2.03;;;;;;;9.75;100.00;99946.84;5055625;28;20044;-82
2021/10/07 06:19:50;;;;;;;5.90;2.25;;;;;;;9.76;100.00;99956.69;5068211;28;20148;-83
2021/10/07 06:22:17;;;;;;;2.33;1.73;;;;;;;9.63;100.00;99927.25;5055750;28;20448;-83
2021/10/07 06:24:44;;;;;;;4.88;1.90;;;;;;;9.76;100.00;99953.16;5059240;28;20064;-83
2021/10/07 06:27:10;;;;;;;4.60;1.65;;;;;;;9.68;100.00;99943.94;5075405;28;20068;-82
2021/10/07 06:29:39;;;;;;;2.80;1.70;;;;;;;9.77;100.00;99954.81;5072207;28;20049;-82
2021/10/07 06:32:07;;;;;;;2.75;1.92;;;;;;;9.70;100.00;99941.91;5055223;28;20055;-82
2021/10/07 06:34:34;;;;;;;2.47;1.58;;;;;;;9.81;100.00;99950.78;5056483;28;20049;-83
2021/10/07 06:37:00;;;;;;;4.75;2.08;;;;;;;9.81;100.00;99957.06;5055994;28;20476;-82
2021/10/07 06:39:27;;;;;;;4.18;2.30;;;;;;;9.79;100.00;99952.81;5055136;28;20056;-82
2021/10/07 06:41:54;;;;;;;5.97;2.15;;;;;;;9.74;100.00;99948.72;5069007;28;20051;-82
2021/10/07 06:44:21;;;;;;;7.65;1.98;;;;;;;9.90;100.00;99966.94;5074771;28;20135;-82
2021/10/07 06:46:49;;;;;;;5.30;2.28;;;;;;;9.97;100.00;99950.03;5070856;28;20059;-82
2021/10/07 06:49:16;;;;;;;7.93;2.30;;;;;;;9.87;100.00;99956.41;5075308;28;20053;-82
2021/10/07 06:51:43;;;;;;;3.95;2.08;;;;;;;9.98;100.00;99968.88;5070903;28;20507;-82
2021/10/07 06:54:10;;;;;;;6.97;2.47;;;;;;;9.92;100.00;99951.38;5054972;28;20508;-82
2021/10/07 06:56:37;;;;;;;4.82;2.15;;;;;;;10.06;100.00;99962.66;5060753;28;20508;-82
2021/10/07 06:59:04;;;;;;;9.57;3.45;;;;;;;10.06;100.00;99968.91;5062010;28;20377;-82
2021/10/07 07:01:31;;;;;;;6.97;3.25;;;;;;;10.02;100.00;99953.09;5071586;28;20102;-81
2021/10/07 07:04:00;;;;;;;6.72;3.45;;;;;;;10.03;100.00;99960.25;5065190;28;20048;-82
2021/10/07 07:06:28;;;;;;;9.63;2.92;;;;;;;10.13;100.00;99976.41;5067223;28;20400;-82
2021/10/07 07:08:55;;;;;;;5.18;3.60;;;;;;;10.08;100.00;99955.16;5074843;28;20233;-82
2021/10/07 07:11:25;;;;;;;8.25;4.05;;;;;;;10.23;100.00;99980.72;5066496;28;20071;-82
2021/10/07 07:13:53;;;;;;;6.30;3.70;;;;;;;10.22;100.00;99987.19;5066525;28;20098;-80
2021/10/07 07:16:20;;;;;;;7.45;3.65;;;;;;;10.26;100.00;99980.38;5058911;28;20049;-80
2021/10/07 07:18:47;;;;;;;8.85;3.67;;;;;;;10.32;100.00;99989.75;5053318;28;20053;-81
2021/10/07 07:21:15;;;;;;;8.73;4.15;;;;;;;10.28;100.00;99999.25;5064270;28;20048;-81
2021/10/07 07:23:43;;;;;;;5.13;3.45;;;;;;;10.20;100.00;99978.31;5072865;28;20051;-80
2021/10/07 07:26:10;;;;;;;6.60;3.58;;;;;;;10.36;100.00;99995.78;5057690;28;20053;-81
2021/10/07 07:28:37;;;;;;;7.43;3.78;;;;;;;10.35;100.00;99992.19;5054092;28;20053;-80
2021/10/07 07:31:04;;;;;;;9.25;4.10;;;;;;;10.52;100.00;100003.97;5055025;28;20052;-80
2021/10/07 07:33:31;;;;;;;8.05;5.13;;;;;;;10.45;100.00;100003.78;5054286;28;20056;-81
2021/10/07 07:35:57;;;;;;;9.32;4.20;;;;;;;10.46;100.00;99991.03;5058049;28;20050;-81
2021/10/07 07:38:26;;;;;;;6.88;4.55;;;;;;;10.55;100.00;99994.63;5053971;28;20055;-81
2021/10/07 07:40:53;;;;;;;7.40;3.88;;;;;;;10.57;100.00;99985.31;5054668;28;20045;-80
2021/10/07 07:43:20;;;;;;;9.00;4.68;;;;;;;10.70;100.00;100008.44;5069319;28;20065;-80
2021/10/07 07:45:48;;;;;;;11.93;4.32;;;;;;;10.65;100.00;99991.78;5069069;28;20438;-80
2021/10/07 07:48:15;;;;;;;7.43;4.10;;;;;;;10.79;100.00;99991.13;5053608;28;20060;-81
2021/10/07 07:50:42;;;;;;;5.85;3.72;;;;;;;11.03;100.00;99998.50;5063597;28;20448;-82
2021/10/07 07:53:10;;;;;;;9.77;4.68;;;;;;;11.28;99.17;100007.56;5060171;28;20480;-81
2021/10/07 07:55:38;;;;;;;7.95;4.38;;;;;;;11.18;99.19;100000.56;5072711;28;20113;-81
2021/10/07 07:58:06;;;;;;;7.13;4.40;;;;;;;11.20;99.80;100013.00;5068043;28;20047;-81
2021/10/07 08:00:33;;;;;;;13.30;4.80;;;;;;;11.15;100.00;100008.06;5053875;28;20045;-81
2021/10/07 08:03:00;;;;;;;8.52;4.45;;;;;;;11.34;98.46;100019.63;5073389;28;20480;-81
2021/10/07 08:05:27;;;;;;;12.70;4.32;;;;;;;11.40;98.36;100013.50;5073383;28;20083;-81
2021/10/07 08:07:53;;;;;;;9.93;4.32;;;;;;;11.61;97.78;100018.44;5072906;28;20048;-81
2021/10/07 08:10:20;;;;;;;7.75;3.78;;;;;;;11.62;96.17;100005.69;5073698;28;20049;-81
2021/10/07 08:12:49;;;;;;;8.60;4.30;;;;;;;11.74;95.78;100023.38;5054968;28;20052;-81
2021/10/07 08:15:19;;;;;;;8.00;4.68;;;;;;;11.91;94.26;100026.06;5058920;28;20073;-81
2021/10/07 08:17:46;;;;;;;7.75;4.13;;;;;;;11.84;93.03;100021.31;5070153;28;20132;-81
2021/10/07 08:20:15;;;;;;;11.95;4.43;;;;;;;11.87;91.81;100003.78;5064234;28;20052;-81
2021/10/07 08:22:42;;;;;;;8.15;5.20;;;;;;;11.93;92.74;100008.56;5063606;28;20055;-81
2021/10/07 08:25:10;;;;;;;7.35;4.85;;;;;;;11.89;93.15;100001.72;5073046;28;20381;-81
2021/10/07 08:27:39;;;;;;;12.73;5.37;;;;;;;11.80;93.09;100005.50;5059753;28;20048;-81
2021/10/07 08:30:10;;;;;;;9.35;4.50;;;;;;;11.90;93.39;100010.78;5073282;28;20936;-81
2021/10/07 08:32:38;;;;;;;6.88;4.10;;;;;;;11.71;94.58;100009.25;5072369;28;20044;-81
2021/10/07 08:35:06;;;;;;;8.43;4.25;;;;;;;11.69;95.80;99998.53;5073080;28;20049;-81
2021/10/07 08:37:33;;;;;;;9.60;4.60;;;;;;;11.86;93.68;100016.56;5056311;28;20053;-81
2021/10/07 08:40:00;;;;;;;7.75;4.28;;;;;;;12.00;92.55;100011.47;5053248;28;20053;-81
2021/10/07 08:42:28;;;;;;;8.88;4.40;;;;;;;11.86;93.10;100010.25;5053736;28;20498;-81
2021/10/07 08:44:56;;;;;;;9.88;4.85;;;;;;;12.04;92.18;100019.13;5052998;28;20045;-81
2021/10/07 08:47:25;;;;;;;11.88;5.03;;;;;;;11.90;93.17;100005.31;5066970;28;20060;-81
2021/10/07 08:49:52;;;;;;;13.38;4.70;;;;;;;11.97;92.21;100034.47;5073328;28;20102;-81
2021/10/07 08:52:20;;;;;;;7.43;5.53;;;;;;;11.89;92.26;100018.06;5071955;28;20227;-81
2021/10/07 08:54:47;;;;;;;10.30;4.70;;;;;;;11.95;93.48;100047.38;5073135;28;20131;-80
2021/10/07 08:57:15;;;;;;;7.43;5.45;;;;;;;12.07;92.56;100033.41;5061632;28;20045;-81
2021/10/07 08:59:44;;;;;;;12.68;5.78;;;;;;;12.26;91.07;100041.22;5053448;28;20076;-81
2021/10/07 09:02:27;;;;;;;11.85;5.40;;;;;;;12.12;91.32;100050.09;5063379;28;20044;-81
2021/10/07 09:04:53;;;;;;;13.18;6.40;;;;;;;11.98;89.90;100041.63;5072955;28;20052;-81
2021/10/07 09:07:21;;;;;;;9.93;6.32;;;;;;;11.72;92.45;100043.66;5060748;28;20044;-81
2021/10/07 09:09:48;;;;;;;8.30;6.13;;;;;;;11.66;93.62;100024.22;5053407;28;20076;-81
2021/10/07 09:12:18;;;;;;;10.77;6.75;;;;;;;11.83;91.11;100035.97;5052609;28;20503;-81
2021/10/07 09:14:47;;;;;;;11.70;6.40;;;;;;;11.81;91.33;100031.72;5052562;28;20053;-81
2021/10/07 09:17:15;;;;;;;12.60;5.95;;;;;;;11.74;92.98;100027.97;5053167;28;20045;-81
2021/10/07 09:19:45;;;;;;;8.30;4.90;;;;;;;11.97;92.03;100033.63;5052933;28;20052;-81
2021/10/07 09:22:16;;;;;;;;;;;;;;;12.23;88.41;100044.28;5061968;28;20131;-81
2021/10/07 09:24:44;;;;;;;6.72;4.22;;;;;;;12.12;90.15;100023.69;5064767;28;19921;-81
2021/10/07 09:27:13;;;;;;;3.25;2.30;;;;;;;12.35;85.44;100042.88;5052568;28;20056;-81
2021/10/07 09:29:43;;;;;;;4.18;2.88;;;;;;;12.49;83.25;100046.75;5060477;28;20048;-81
2021/10/07 09:32:12;;;;;;;4.10;2.78;;;;;;;12.50;83.61;100040.28;5075506;28;20058;-81
2021/10/07 09:34:52;;;;;;;5.47;2.13;;;;;;;12.37;83.58;100027.22;5074604;28;20045;-81
2021/10/07 09:37:23;;;;;;;;;;;;;;;12.42;84.59;100042.19;5064567;28;20051;-81
2021/10/07 09:39:52;;;;;;;3.50;2.63;;;;;;;12.68;84.88;100045.50;5076315;28;20367;-81
2021/10/07 09:42:21;;;;;;;4.00;2.50;;;;;;;12.81;83.63;100044.06;5068231;28;20052;-81
2021/10/07 09:44:58;;;;;;;5.83;2.33;;;;;;;12.85;82.86;100027.16;5056146;28;20088;-81
2021/10/07 09:47:30;;;;;;;4.10;2.95;;;;;;;13.03;85.03;100036.97;5064133;28;20298;-81
2021/10/07 09:50:22;;;;;;;6.15;2.47;;;;;;;13.06;84.19;100042.91;5076166;28;20052;-81
2021/10/07 09:53:00;;;;;;;3.95;2.35;;;;;;;13.04;84.25;100046.88;5075404;28;20040;-81
2021/10/07 09:55:31;;;;;;;4.22;2.35;;;;;;;13.21;82.25;100045.72;5076065;28;20056;-81
2021/10/07 09:58:01;;;;;;;3.83;2.20;;;;;;;13.12;84.33;100032.31;5064307;28;20048;-81
2021/10/07 10:00:30;;;;;;;3.03;2.35;;;;;;;13.00;84.04;100037.31;5056018;28;20052;-81
2021/10/07 10:02:59;;;;;;;5.57;2.95;;;;;;;13.08;83.78;100035.41;5058604;28;20124;-81
2021/10/07 10:05:30;;;;;;;2.73;2.30;;;;;;;12.88;83.75;100024.06;5055516;28;20045;-81
2021/10/07 10:07:57;;;;;;;4.88;2.35;;;;;;;12.70;85.74;100029.78;5065840;28;20496;-81
2021/10/07 10:10:24;;;;;;;11.57;3.05;;;;;;;12.79;85.99;100027.03;5056854;28;20045;-81
2021/10/07 10:12:52;;;;;;;4.68;2.60;;;;;;;12.84;87.28;100033.66;5064287;28;20049;-81
2021/10/07 10:15:21;;;;;;;8.23;2.65;;;;;;;13.00;86.35;100043.63;5059110;28;20095;-81
2021/10/07 10:17:48;;;;;;;3.67;2.35;;;;;;;13.00;84.49;100035.44;5063468;28;20056;-81
2021/10/07 10:20:20;;;;;;;4.03;2.45;;;;;;;12.81;86.87;100027.69;5075530;28;20048;-81
2021/10/07 10:22:52;;;;;;;2.50;2.30;;;;;;;12.78;85.88;100020.75;5066827;28;20420;-81
2021/10/07 10:25:19;;;;;;;5.72;2.55;;;;;;;12.93;85.45;100035.31;5063900;28;20175;-81
2021/10/07 10:27:57;;;;;;;7.15;3.70;;;;;;;13.06;84.45;100022.97;5061584;28;20087;-81
2021/10/07 10:30:30;;;;;;;6.88;2.95;;;;;;;13.16;85.82;100039.97;5074942;28;20126;-81
2021/10/07 10:32:59;;;;;;;5.40;3.17;;;;;;;13.14;84.79;100019.31;5066585;28;20055;-81
2021/10/07 10:35:39;;;;;;;5.40;3.17;;;;;;;13.28;83.26;100013.94;5062660;28;20131;-80
2021/10/07 10:38:10;;;;;;;6.25;2.53;;;;;;;13.55;81.16;100025.38;5073775;28;20063;-81
2021/10/07 10:40:37;;;;;;;5.35;2.70;;;;;;;13.49;80.80;100020.66;5074016;28;20462;-81
2021/10/07 10:43:30;;;;;;;4.85;2.50;;;;;;;13.71;79.31;100046.22;5058467;28;20103;-82
2021/10/07 10:46:17;;;;;;;5.05;2.67;;;;;;;13.48;79.33;100031.75;5060534;28;20045;-80
2021/10/07 10:49:00;;;;;;;5.05;2.80;;;;;;;13.63;79.74;100057.22;5075353;28;20044;-81
2021/10/07 10:51:37;;;;;;;3.00;2.35;;;;;;;13.64;79.32;100042.56;5064475;28;20053;-81
2021/10/07 10:54:12;;;;;;;2.38;2.08;;;;;;;13.60;79.40;100049.41;5054816;28;20067;-81
2021/10/07 10:56:43;;;;;;;6.13;2.60;;;;;;;13.68;77.96;100060.25;5054885;28;20400;-81
2021/10/07 10:59:18;;;;;;;7.35;2.70;;;;;;;13.67;78.72;100041.31;5054625;28;20128;-81
2021/10/07 11:01:45;;;;;;;4.15;1.95;;;;;;;13.61;78.79;100043.75;5054570;28;20131;-81
2021/10/07 11:04:33;;;;;;;2.95;2.10;;;;;;;13.82;79.37;100053.16;5054893;28;20136;-81
2021/10/07 11:07:20;;;;;;;3.67;1.90;;;;;;;13.81;79.57;100048.72;5054156;28;20048;-81
2021/10/07 11:09:56;;;;;;;5.25;1.90;;;;;;;13.84;77.68;100066.63;5054487;28;20056;-81
2021/10/07 11:12:23;;;;;;;5.18;2.30;;;;;;;13.56;78.33;100045.34;5054307;28;20112;-81
2021/10/07 11:14:51;;;;;;;3.47;2.28;;;;;;;13.47;79.26;100041.81;5053697;28;20052;-81
2021/10/07 11:17:18;;;;;;;6.43;1.63;;;;;;;13.54;80.26;100052.88;5054310;28;20053;-81
2021/10/07 11:19:46;;;;;;;7.15;1.60;;;;;;;13.48;79.69;100051.72;5054905;28;20041;-81
2021/10/07 11:22:13;;;;;;;3.67;1.80;;;;;;;13.52;79.14;100047.59;5053625;28;20118;-82
2021/10/07 11:24:52;;;;;;;2.88;1.50;;;;;;;13.74;78.63;100045.00;5054036;28;20057;-81
2021/10/07 11:27:39;;;;;;;2.83;1.65;;;;;;;13.96;79.33;100048.75;5053776;28;20053;-81
2021/10/07 11:30:09;;;;;;;4.97;2.25;;;;;;;13.99;79.60;100046.50;5054467;28;20049;-82
2021/10/07 11:32:39;;;;;;;5.57;2.83;;;;;;;14.02;80.54;100058.94;5053710;28;20064;-81
2021/10/07 11:35:07;;;;;;;;;;;;;;;14.20;78.85;100049.56;5054449;28;20041;-81
2021/10/07 11:37:58;;;;;;;4.40;2.70;;;;;;;14.08;79.58;100030.03;5053995;28;19927;-81
2021/10/07 11:40:28;;;;;;;4.30;2.55;;;;;;;14.20;75.13;100030.41;5053546;28;20123;-81
2021/10/07 11:42:57;;;;;;;;;;;;;;;14.27;75.82;100043.16;5054493;28;20045;-81